createdAt,value
2019-02-24T00:01:25.792Z,102447.86
2019-02-24T00:04:11.701Z,102440.96
2019-02-24T00:06:57.669Z,102432.71
2019-02-24T00:09:44.076Z,102433.45
2019-02-24T00:12:30.099Z,102430.80
2019-02-24T00:15:15.858Z,102433.11
2019-02-24T00:18:02.116Z,102437.52
2019-02-24T00:20:47.836Z,102440.50
2019-02-24T00:23:33.789Z,102436.73
2019-02-24T00:26:20.068Z,102434.81
2019-02-24T00:29:06.745Z,102429.35
2019-02-24T00:31:52.815Z,102431.67
2019-02-24T00:34:40.000Z,102421.02
2019-02-24T00:37:26.010Z,102421.59
2019-02-24T00:40:12.656Z,102417.97
2019-02-24T00:42:58.733Z,102410.06
2019-02-24T00:45:44.184Z,102410.06
2019-02-24T00:48:30.632Z,102423.97
2019-02-24T00:51:16.357Z,102424.78
2019-02-24T00:54:02.473Z,102424.78
2019-02-24T00:56:48.449Z,102434.62
2019-02-24T00:59:34.294Z,102443.23
2019-02-24T01:02:22.600Z,102445.45
2019-02-24T01:05:08.834Z,102444.77
2019-02-24T01:07:54.927Z,102446.53
2019-02-24T01:10:40.795Z,102440.24
2019-02-24T01:13:27.414Z,102433.81
2019-02-24T01:16:13.529Z,102433.01
2019-02-24T01:18:59.564Z,102429.40
2019-02-24T01:21:46.174Z,102424.99
2019-02-24T01:24:32.276Z,102419.43
2019-02-24T01:27:19.077Z,102421.19
2019-02-24T01:30:05.193Z,102414.97
2019-02-24T01:32:50.676Z,102415.90
2019-02-24T01:35:37.200Z,102411.84
2019-02-24T01:38:23.017Z,102409.16
2019-02-24T01:41:09.689Z,102410.21
2019-02-24T01:43:56.399Z,102409.11
2019-02-24T01:46:42.527Z,102418.94
2019-02-24T01:49:28.465Z,102419.16
2019-02-24T01:52:14.667Z,102413.61
2019-02-24T01:55:00.777Z,102415.16
2019-02-24T01:57:46.591Z,102413.13
2019-02-24T02:00:33.109Z,102407.70
2019-02-24T02:03:18.984Z,102415.06
2019-02-24T02:06:05.259Z,102415.81
2019-02-24T02:08:51.504Z,102416.42
2019-02-24T02:11:37.657Z,102412.67
2019-02-24T02:14:23.924Z,102415.14
2019-02-24T02:17:10.255Z,102413.17
2019-02-24T02:19:56.087Z,102413.17
2019-02-24T02:22:41.938Z,102403.62
2019-02-24T02:25:28.249Z,102403.62
2019-02-24T02:28:14.262Z,102397.08
2019-02-24T02:31:00.061Z,102388.15
2019-02-24T02:33:46.264Z,102384.11
2019-02-24T02:36:32.029Z,102384.11
2019-02-24T02:39:18.038Z,102390.56
2019-02-24T02:42:04.445Z,102389.99
2019-02-24T02:44:50.353Z,102389.99
2019-02-24T02:47:36.165Z,102391.48
2019-02-24T02:50:23.018Z,102394.41
2019-02-24T02:53:08.767Z,102396.17
2019-02-24T02:55:54.731Z,102400.48
2019-02-24T02:58:41.105Z,102401.38
2019-02-24T03:01:27.121Z,102401.38
2019-02-24T03:04:13.237Z,102393.41
2019-02-24T03:07:09.028Z,102391.11
2019-02-24T03:09:54.657Z,102391.11
2019-02-24T03:12:40.455Z,102396.32
2019-02-24T03:15:27.035Z,102396.37
2019-02-24T03:18:13.338Z,102397.20
2019-02-24T03:20:59.200Z,102387.85
2019-02-24T03:23:45.385Z,102396.58
2019-02-24T03:26:31.072Z,102398.27
2019-02-24T03:29:17.165Z,102398.27
2019-02-24T03:32:03.482Z,102394.55
2019-02-24T03:34:49.361Z,102394.55
2019-02-24T03:37:35.250Z,102399.13
2019-02-24T03:40:21.790Z,102399.13
2019-02-24T03:43:07.857Z,102392.84
2019-02-24T03:45:53.431Z,102401.03
2019-02-24T03:48:39.753Z,102398.54
2019-02-24T03:51:26.717Z,102411.19
2019-02-24T03:54:12.549Z,102417.80
2019-02-24T03:56:58.838Z,102417.80
2019-02-24T03:59:44.794Z,102413.64
2019-02-24T04:02:30.938Z,102422.20
2019-02-24T04:05:17.154Z,102416.63
2019-02-24T04:08:03.026Z,102416.63
2019-02-24T04:10:49.169Z,102405.50
2019-02-24T04:13:36.748Z,102405.50
2019-02-24T04:16:23.058Z,102402.21
2019-02-24T04:19:08.974Z,102398.16
2019-02-24T04:21:55.141Z,102397.88
2019-02-24T04:24:41.073Z,102394.61
2019-02-24T04:27:27.093Z,102390.75
2019-02-24T04:30:13.396Z,102400.08
2019-02-24T04:32:59.234Z,102400.08
2019-02-24T04:35:45.253Z,102399.84
2019-02-24T04:38:31.778Z,102403.35
2019-02-24T04:41:18.011Z,102403.77
2019-02-24T04:44:03.637Z,102411.22
2019-02-24T04:46:49.915Z,102417.10
2019-02-24T04:49:35.618Z,102421.62
2019-02-24T04:52:21.522Z,102422.80
2019-02-24T04:55:07.820Z,102413.09
2019-02-24T04:57:53.634Z,102413.78
2019-02-24T05:00:39.582Z,102407.70
2019-02-24T05:03:26.510Z,102409.32
2019-02-24T05:06:12.566Z,102404.16
2019-02-24T05:08:58.484Z,102398.27
2019-02-24T05:11:44.678Z,102398.95
2019-02-24T05:14:30.722Z,102401.28
2019-02-24T05:17:16.894Z,102398.44
2019-02-24T05:20:04.010Z,102404.53
2019-02-24T05:22:49.963Z,102404.53
2019-02-24T05:25:36.058Z,102406.47
2019-02-24T05:28:22.308Z,102405.73
2019-02-24T05:31:08.115Z,102406.77
2019-02-24T05:33:54.095Z,102406.67
2019-02-24T05:36:40.373Z,102406.67
2019-02-24T05:39:26.394Z,102413.88
2019-02-24T05:42:12.427Z,102414.47
2019-02-24T05:44:58.871Z,102412.94
2019-02-24T05:47:44.938Z,102414.89
2019-02-24T05:50:30.701Z,102417.05
2019-02-24T05:53:17.081Z,102426.27
2019-02-24T05:56:03.317Z,102428.72
2019-02-24T05:58:49.247Z,102423.03
2019-02-24T06:01:35.289Z,102434.60
2019-02-24T06:04:21.691Z,102427.16
2019-02-24T06:07:07.458Z,102431.28
2019-02-24T06:09:54.090Z,102430.19
2019-02-24T06:12:40.001Z,102430.41
2019-02-24T06:15:25.474Z,102428.16
2019-02-24T06:18:11.971Z,102423.52
2019-02-24T06:20:59.366Z,102428.39
2019-02-24T06:23:45.195Z,102424.67
2019-02-24T06:26:32.081Z,102428.30
2019-02-24T06:29:17.999Z,102427.02
2019-02-24T06:32:14.664Z,102430.31
2019-02-24T06:35:00.595Z,102423.05
2019-02-24T06:37:46.586Z,102428.45
2019-02-24T06:40:32.926Z,102428.45
2019-02-24T06:43:18.984Z,102426.78
2019-02-24T06:46:04.798Z,102435.36
2019-02-24T06:48:51.037Z,102435.36
2019-02-24T06:51:37.067Z,102435.75
2019-02-24T06:54:22.945Z,102434.25
2019-02-24T06:57:09.350Z,102435.55
2019-02-24T06:59:54.901Z,102438.41
2019-02-24T07:02:40.739Z,102437.89
2019-02-24T07:05:27.409Z,102438.05
2019-02-24T07:08:13.071Z,102428.45
2019-02-24T07:10:58.956Z,102428.45
2019-02-24T07:13:45.090Z,102427.36
2019-02-24T07:16:31.226Z,102431.45
2019-02-24T07:19:17.451Z,102441.20
2019-02-24T07:22:03.918Z,102444.08
2019-02-24T07:24:50.115Z,102436.31
2019-02-24T07:27:36.146Z,102437.82
2019-02-24T07:30:23.709Z,102437.42
2019-02-24T07:33:09.898Z,102437.84
2019-02-24T07:35:55.888Z,102439.59
2019-02-24T07:38:49.011Z,102434.19
2019-02-24T07:41:40.899Z,102440.42
2019-02-24T07:44:27.051Z,102450.87
2019-02-24T07:47:13.605Z,102454.28
2019-02-24T07:49:59.631Z,102454.42
2019-02-24T07:52:45.666Z,102456.86
2019-02-24T07:55:31.940Z,102459.30
2019-02-24T07:58:17.753Z,102456.84
2019-02-24T08:01:03.663Z,102469.27
2019-02-24T08:03:50.179Z,102467.80
2019-02-24T08:06:35.923Z,102471.05
2019-02-24T08:09:22.055Z,102475.92
2019-02-24T08:12:08.150Z,102476.42
2019-02-24T08:14:54.253Z,102489.25
2019-02-24T08:17:40.116Z,102495.57
2019-02-24T08:20:26.918Z,102496.47
2019-02-24T08:23:12.760Z,102493.79
2019-02-24T08:25:58.536Z,102491.38
2019-02-24T08:28:44.755Z,102479.06
2019-02-24T08:31:30.965Z,102479.53
2019-02-24T08:34:16.875Z,102484.80
2019-02-24T08:37:05.003Z,102488.09
2019-02-24T08:39:50.870Z,102494.08
2019-02-24T08:42:36.579Z,102503.28
2019-02-24T08:45:22.855Z,102496.10
2019-02-24T08:48:09.259Z,102490.33
2019-02-24T08:50:55.534Z,102486.14
2019-02-24T08:53:41.711Z,102492.33
2019-02-24T08:56:27.930Z,102488.70
2019-02-24T08:59:13.824Z,102489.16
2019-02-24T09:01:59.744Z,102486.80
2019-02-24T09:04:45.681Z,102495.23
2019-02-24T09:07:31.850Z,102493.27
2019-02-24T09:10:17.602Z,102484.98
2019-02-24T09:13:03.536Z,102483.61
2019-02-24T09:15:50.226Z,102489.20
2019-02-24T09:18:35.862Z,102488.63
2019-02-24T09:21:21.966Z,102490.52
2019-02-24T09:24:08.212Z,102495.27
2019-02-24T09:26:53.881Z,102490.45
2019-02-24T09:29:39.359Z,102499.61
2019-02-24T09:32:25.684Z,102499.48
2019-02-24T09:35:11.728Z,102502.02
2019-02-24T09:37:57.686Z,102509.78
2019-02-24T09:40:44.918Z,102509.16
2019-02-24T09:43:30.640Z,102520.67
2019-02-24T09:46:17.364Z,102523.33
2019-02-24T09:49:03.313Z,102521.42
2019-02-24T09:51:48.874Z,102528.09
2019-02-24T09:54:35.011Z,102526.63
2019-02-24T09:57:21.880Z,102526.28
2019-02-24T10:00:08.381Z,102529.53
2019-02-24T10:02:54.583Z,102521.78
2019-02-24T10:05:40.396Z,102527.83
2019-02-24T10:08:26.250Z,102523.08
2019-02-24T10:11:13.334Z,102522.27
2019-02-24T10:13:59.344Z,102517.41
2019-02-24T10:16:45.611Z,102523.09
2019-02-24T10:19:33.914Z,102524.20
2019-02-24T10:22:20.128Z,102527.44
2019-02-24T10:25:06.545Z,102525.47
2019-02-24T10:27:52.788Z,102526.94
2019-02-24T10:30:38.765Z,102530.58
2019-02-24T10:33:24.559Z,102533.38
2019-02-24T10:36:13.321Z,102533.22
2019-02-24T10:38:59.888Z,102532.17
2019-02-24T10:41:45.700Z,102530.25
2019-02-24T10:44:33.068Z,102531.59
2019-02-24T10:47:21.216Z,102525.34
2019-02-24T10:50:11.696Z,102526.14
2019-02-24T10:52:59.224Z,102513.03
2019-02-24T10:55:45.533Z,102514.16
2019-02-24T10:58:34.647Z,102509.98
2019-02-24T11:01:19.467Z,102505.61
2019-02-24T11:04:05.983Z,102505.92
2019-02-24T11:06:52.353Z,102502.58
2019-02-24T11:09:38.357Z,102510.86
2019-02-24T11:12:24.296Z,102512.78
2019-02-24T11:15:11.445Z,102507.38
2019-02-24T11:17:57.376Z,102504.04
2019-02-24T11:20:43.267Z,102501.66
2019-02-24T11:23:29.905Z,102500.53
2019-02-24T11:26:15.905Z,102501.48
2019-02-24T11:29:01.777Z,102504.86
2019-02-24T11:31:47.869Z,102502.98
2019-02-24T11:34:34.027Z,102508.06
2019-02-24T11:37:19.557Z,102503.92
2019-02-24T11:40:06.900Z,102508.48
2019-02-24T11:42:56.280Z,102517.50
2019-02-24T11:45:43.675Z,102515.59
2019-02-24T11:48:29.728Z,102521.39
2019-02-24T11:51:15.581Z,102509.73
2019-02-24T11:54:01.587Z,102502.13
2019-02-24T11:56:47.776Z,102499.25
2019-02-24T11:59:34.018Z,102496.92
2019-02-24T12:02:23.120Z,102495.94
2019-02-24T12:05:08.831Z,102494.17
2019-02-24T12:07:54.989Z,102496.80
2019-02-24T12:10:40.901Z,102489.78
2019-02-24T12:13:26.806Z,102500.74
2019-02-24T12:16:13.116Z,102494.02
2019-02-24T12:18:59.192Z,102498.55
2019-02-24T12:21:45.201Z,102497.77
2019-02-24T12:24:31.085Z,102495.49
2019-02-24T12:27:17.409Z,102496.88
2019-02-24T12:30:05.000Z,102498.34
2019-02-24T12:32:52.246Z,102494.23
2019-02-24T12:35:38.847Z,102487.39
2019-02-24T12:38:24.846Z,102485.55
2019-02-24T12:41:10.895Z,102481.37
2019-02-24T12:43:57.075Z,102478.27
2019-02-24T12:46:43.332Z,102472.95
2019-02-24T12:49:29.207Z,102477.55
2019-02-24T12:52:15.487Z,102481.88
2019-02-24T12:55:01.948Z,102472.09
2019-02-24T12:57:47.849Z,102479.03
2019-02-24T13:00:34.359Z,102463.23
2019-02-24T13:03:23.953Z,102458.67
2019-02-24T13:06:08.414Z,102458.70
2019-02-24T13:08:57.486Z,102457.22
2019-02-24T13:11:45.647Z,102452.02
2019-02-24T13:14:31.324Z,102453.92
2019-02-24T13:17:18.122Z,102454.95
2019-02-24T13:20:04.364Z,102447.79
2019-02-24T13:22:50.425Z,102444.84
2019-02-24T13:25:36.751Z,102444.67
2019-02-24T13:28:33.288Z,102453.33
2019-02-24T13:31:20.003Z,102442.11
2019-02-24T13:34:08.531Z,102438.30
2019-02-24T13:36:57.386Z,102437.57
2019-02-24T13:39:43.759Z,102439.00
2019-02-24T13:42:29.848Z,102435.44
2019-02-24T13:45:15.964Z,102438.61
2019-02-24T13:48:02.800Z,102440.77
2019-02-24T13:50:48.836Z,102439.66
2019-02-24T13:53:38.139Z,102435.77
2019-02-24T13:56:29.860Z,102444.30
2019-02-24T13:59:16.276Z,102444.13
2019-02-24T14:02:02.164Z,102441.17
2019-02-24T14:04:48.537Z,102441.38
2019-02-24T14:07:34.133Z,102442.85
2019-02-24T14:10:20.672Z,102446.09
2019-02-24T14:13:09.261Z,102440.70
2019-02-24T14:15:55.548Z,102443.08
2019-02-24T14:18:41.580Z,102441.56
2019-02-24T14:21:31.975Z,102443.59
2019-02-24T14:24:17.653Z,102442.27
2019-02-24T14:27:04.573Z,102443.45
2019-02-24T14:29:50.740Z,102443.00
2019-02-24T14:32:36.796Z,102441.92
2019-02-24T14:35:24.428Z,102439.82
2019-02-24T14:38:10.810Z,102443.45
2019-02-24T14:40:56.804Z,102436.27
2019-02-24T14:43:44.088Z,102440.92
2019-02-24T14:46:31.184Z,102442.84
2019-02-24T14:49:17.232Z,102437.22
2019-02-24T14:52:03.381Z,102438.97
2019-02-24T14:54:49.698Z,102431.05
2019-02-24T14:57:38.003Z,102438.08
2019-02-24T15:00:23.795Z,102438.06
2019-02-24T15:03:10.331Z,102441.35
2019-02-24T15:05:55.904Z,102441.54
2019-02-24T15:08:41.908Z,102443.63
2019-02-24T15:11:28.325Z,102448.94
2019-02-24T15:14:14.156Z,102449.38
2019-02-24T15:17:00.152Z,102449.67
2019-02-24T15:19:46.983Z,102451.19
2019-02-24T15:22:33.014Z,102457.28
2019-02-24T15:25:19.158Z,102448.41
2019-02-24T15:28:05.585Z,102450.41
2019-02-24T15:30:51.470Z,102454.06
2019-02-24T15:33:37.320Z,102455.41
2019-02-24T15:36:23.474Z,102449.92
2019-02-24T15:39:09.061Z,102449.09
2019-02-24T15:41:55.140Z,102443.75
2019-02-24T15:44:41.365Z,102446.36
2019-02-24T15:47:27.356Z,102452.06
2019-02-24T15:50:13.356Z,102455.66
2019-02-24T15:52:59.721Z,102450.60
2019-02-24T15:55:45.868Z,102458.13
2019-02-24T15:58:31.801Z,102458.80
2019-02-24T16:01:18.121Z,102453.89
2019-02-24T16:04:03.833Z,102453.94
2019-02-24T16:06:49.701Z,102447.20
2019-02-24T16:09:35.977Z,102435.88
2019-02-24T16:12:22.809Z,102441.47
2019-02-24T16:15:11.176Z,102440.73
2019-02-24T16:17:57.119Z,102442.36
2019-02-24T16:20:43.921Z,102435.91
2019-02-24T16:23:30.339Z,102435.75
2019-02-24T16:26:24.002Z,102437.48
2019-02-24T16:29:26.854Z,102429.27
2019-02-24T16:32:13.953Z,102431.45
2019-02-24T16:34:59.984Z,102431.27
2019-02-24T16:37:46.205Z,102429.83
2019-02-24T16:40:32.750Z,102431.39
2019-02-24T16:43:18.950Z,102436.74
2019-02-24T16:46:07.409Z,102439.31
2019-02-24T16:48:53.489Z,102441.13
2019-02-24T16:51:39.433Z,102433.27
2019-02-24T16:54:28.739Z,102437.16
2019-02-24T16:57:14.510Z,102437.39
2019-02-24T17:00:00.508Z,102440.61
2019-02-24T17:02:49.213Z,102432.25
2019-02-24T17:05:35.249Z,102446.19
2019-02-24T17:08:22.025Z,102454.41
2019-02-24T17:11:10.760Z,102453.59
2019-02-24T17:13:56.947Z,102460.00
2019-02-24T17:16:43.245Z,102471.13
2019-02-24T17:19:30.256Z,102467.81
2019-02-24T17:22:16.787Z,102473.55
2019-02-24T17:25:03.847Z,102472.23
2019-02-24T17:27:50.565Z,102476.14
2019-02-24T17:30:37.642Z,102478.64
2019-02-24T17:33:29.948Z,102479.23
2019-02-24T17:36:11.730Z,102479.70
2019-02-24T17:38:57.581Z,102478.31
2019-02-24T17:41:43.958Z,102484.56
2019-02-24T17:44:29.771Z,102478.23
2019-02-24T17:47:15.660Z,102474.48
2019-02-24T17:50:01.658Z,102476.02
2019-02-24T17:52:47.233Z,102475.41
2019-02-24T17:55:35.348Z,102475.09
2019-02-24T17:58:21.517Z,102471.98
2019-02-24T18:01:07.338Z,102477.63
2019-02-24T18:03:54.603Z,102474.63
2019-02-24T18:06:41.137Z,102486.82
2019-02-24T18:09:27.454Z,102484.28
2019-02-24T18:12:13.702Z,102483.03
2019-02-24T18:15:03.577Z,102479.52
2019-02-24T18:17:50.810Z,102486.03
2019-02-24T18:20:37.627Z,102485.73
2019-02-24T18:23:25.139Z,102480.81
2019-02-24T18:26:11.586Z,102478.09
2019-02-24T18:28:58.512Z,102487.68
2019-02-24T18:31:46.556Z,102478.59
2019-02-24T18:34:33.382Z,102476.92
2019-02-24T18:37:20.289Z,102474.91
2019-02-24T18:40:07.258Z,102475.66
2019-02-24T18:43:00.342Z,102475.48
2019-02-24T18:45:42.925Z,102469.81
2019-02-24T18:48:32.442Z,102473.55
2019-02-24T18:51:18.569Z,102478.36
2019-02-24T18:54:04.843Z,102472.80
2019-02-24T18:56:52.298Z,102470.45
2019-02-24T18:59:38.622Z,102463.78
2019-02-24T19:02:26.045Z,102465.34
2019-02-24T19:05:12.252Z,102460.09
2019-02-24T19:07:58.720Z,102462.42
2019-02-24T19:10:45.199Z,102447.80
2019-02-24T19:13:32.881Z,102447.08
2019-02-24T19:16:18.965Z,102443.36
2019-02-24T19:19:05.668Z,102441.91
2019-02-24T19:21:53.436Z,102435.72
2019-02-24T19:24:39.523Z,102432.91
2019-02-24T19:27:25.706Z,102432.03
2019-02-24T19:30:13.345Z,102427.17
2019-02-24T19:33:00.586Z,102431.75
2019-02-24T19:35:46.867Z,102429.84
2019-02-24T19:38:33.344Z,102423.09
2019-02-24T19:41:19.688Z,102426.57
2019-02-24T19:44:05.864Z,102423.82
2019-02-24T19:46:52.456Z,102415.21
2019-02-24T19:49:38.012Z,102421.41
2019-02-24T19:52:25.303Z,102422.97
2019-02-24T19:55:11.735Z,102427.50
2019-02-24T19:58:00.353Z,102432.57
2019-02-24T20:00:46.373Z,102436.61
2019-02-24T20:03:33.042Z,102432.20
2019-02-24T20:06:20.375Z,102436.80
2019-02-24T20:09:10.594Z,102437.32
2019-02-24T20:11:59.901Z,102446.23
2019-02-24T20:14:49.101Z,102451.25
2019-02-24T20:17:35.019Z,102446.44
2019-02-24T20:20:21.507Z,102451.88
2019-02-24T20:23:07.531Z,102454.14
2019-02-24T20:25:53.795Z,102460.23
2019-02-24T20:28:41.199Z,102465.66
2019-02-24T20:31:27.248Z,102467.80
2019-02-24T20:34:12.990Z,102463.88
2019-02-24T20:36:58.994Z,102468.52
2019-02-24T20:39:45.054Z,102476.43
2019-02-24T20:42:31.418Z,102482.68
2019-02-24T20:45:20.053Z,102483.81
2019-02-24T20:48:06.168Z,102494.05
2019-02-24T20:50:52.069Z,102488.68
2019-02-24T20:53:37.962Z,102491.17
2019-02-24T20:56:23.790Z,102490.51
2019-02-24T20:59:10.486Z,102496.81
2019-02-24T21:01:56.397Z,102496.08
2019-02-24T21:04:42.070Z,102497.81
2019-02-24T21:07:28.315Z,102495.91
2019-02-24T21:10:14.133Z,102490.97
2019-02-24T21:13:02.516Z,102494.77
2019-02-24T21:15:48.458Z,102495.06
2019-02-24T21:18:34.143Z,102496.59
2019-02-24T21:21:20.023Z,102494.42
2019-02-24T21:24:06.278Z,102494.45
2019-02-24T21:26:52.171Z,102494.86
2019-02-24T21:29:38.197Z,102500.20
2019-02-24T21:32:27.293Z,102497.16
2019-02-24T21:35:13.574Z,102495.52
2019-02-24T21:37:59.155Z,102501.27
2019-02-24T21:40:45.387Z,102507.31
2019-02-24T21:43:31.126Z,102499.33
2019-02-24T21:46:16.699Z,102503.66
2019-02-24T21:49:03.128Z,102504.95
2019-02-24T21:51:48.897Z,102506.64
2019-02-24T21:54:35.246Z,102502.66
2019-02-24T21:57:22.771Z,102496.83
2019-02-24T22:00:14.882Z,102495.97
2019-02-24T22:03:00.698Z,102495.14
2019-02-24T22:05:47.045Z,102488.92
2019-02-24T22:08:32.682Z,102494.33
2019-02-24T22:11:19.809Z,102490.39
2019-02-24T22:14:06.154Z,102492.30
2019-02-24T22:16:52.416Z,102497.91
2019-02-24T22:19:38.539Z,102503.05
2019-02-24T22:22:25.764Z,102513.16
2019-02-24T22:25:12.059Z,102511.50
2019-02-24T22:27:59.918Z,102503.80
2019-02-24T22:30:46.217Z,102511.42
2019-02-24T22:33:31.813Z,102509.89
2019-02-24T22:36:17.942Z,102510.37
2019-02-24T22:39:04.706Z,102510.64
2019-02-24T22:41:50.414Z,102510.95
2019-02-24T22:44:36.435Z,102513.92
2019-02-24T22:47:22.488Z,102515.89
2019-02-24T22:50:10.077Z,102514.70
2019-02-24T22:52:56.121Z,102518.91
2019-02-24T22:55:42.644Z,102520.39
2019-02-24T22:58:28.246Z,102520.45
2019-02-24T23:01:31.472Z,102522.83
2019-02-24T23:04:17.145Z,102518.22
2019-02-24T23:07:03.593Z,102519.50
2019-02-24T23:09:49.986Z,102516.39
2019-02-24T23:12:35.945Z,102518.49
2019-02-24T23:15:21.390Z,102520.93
2019-02-24T23:18:07.846Z,102519.50
2019-02-24T23:20:53.645Z,102522.38
2019-02-24T23:23:40.044Z,102521.43
2019-02-24T23:26:26.188Z,102526.75
2019-02-24T23:29:12.083Z,102528.24
2019-02-24T23:31:58.181Z,102533.39
2019-02-24T23:34:43.961Z,102529.91
2019-02-24T23:37:30.065Z,102525.70
2019-02-24T23:40:16.197Z,102524.08
2019-02-24T23:43:02.396Z,102527.47
2019-02-24T23:45:48.387Z,102524.70
2019-02-24T23:48:35.900Z,102520.09
2019-02-24T23:51:22.364Z,102521.53
2019-02-24T23:54:08.026Z,102511.03
2019-02-24T23:56:54.300Z,102503.53
2019-02-24T23:59:40.411Z,102502.73
